Terminal Aerodrome Forecast
Issued by NWS

Home | Current Version | Previous Version | Text Only | Print | Product List | Glossary On
Versions: 1 2 3 4 5 6 7 8 9 10 11 12 13 14 15 16 17 18 19
000
FTUS41 KPBZ 260520
TAFLBE
TAF
KLBE 260520Z 2606/2706 09005KT P6SM BKN100
     FM261400 14012G22KT P6SM BKN070
     FM261800 14012G22KT P6SM VCSH OVC050
     FM270000 15012G25KT 3SM -SHRA OVC008=

USA.gov is the U.S. government's official web portal to all federal, state and local government web resources and services.